Spa/La Sauveniere, Belgium
Current Conditions -  °F | °C
As of 3:20 AM on Thursday 18 Dec 2014 (Local Time) from EBLG Reporting Station
Drizzle Drizzle  
Wind Chill: 10°   Ceiling: 500
Heat Index: 10°   Visibility: 1.5mi
Dew Point:   Wind: 13mph
Humidity: 94%   Direction: 210°SSW
Pressure: 29.83"   Gusts: NA
Location:  50.49°N, 5.89°E
Report Text: EBLG 180220Z 21011KT 2500 -DZ FEW003 BKN005 10/09 Q1010 TEMPO 1200 DZ BR BKN002
Loading
Personal Weather Stations






























Interactive Weather Map New forecast layout! Learn more

10-Day Weather Forecast

Advertisements
Track Severe Weather on mobile